sensor_id;sensor_type;location;lat;lon;timestamp;P1;durP1;ratioP1;P2;durP2;ratioP2
38805;SDS011;25635;51.146;17.162;2022-11-11T00:01:09;35.77;;;21.43;;
38805;SDS011;25635;51.146;17.162;2022-11-11T00:03:40;33.17;;;19.53;;
38805;SDS011;25635;51.146;17.162;2022-11-11T00:06:11;40.83;;;24.97;;
38805;SDS011;25635;51.146;17.162;2022-11-11T00:08:40;36.33;;;19.47;;
38805;SDS011;25635;51.146;17.162;2022-11-11T00:11:08;37.33;;;21.23;;
38805;SDS011;25635;51.146;17.162;2022-11-11T00:13:38;37.67;;;21.40;;
38805;SDS011;25635;51.146;17.162;2022-11-11T00:16:07;39.97;;;22.80;;
38805;SDS011;25635;51.146;17.162;2022-11-11T00:18:43;45.10;;;25.00;;
38805;SDS011;25635;51.146;17.162;2022-11-11T00:21:29;45.00;;;25.52;;
38805;SDS011;25635;51.146;17.162;2022-11-11T00:24:19;47.23;;;24.82;;
38805;SDS011;25635;51.146;17.162;2022-11-11T00:27:10;46.57;;;26.83;;
38805;SDS011;25635;51.146;17.162;2022-11-11T00:29:38;49.90;;;27.13;;
38805;SDS011;25635;51.146;17.162;2022-11-11T00:32:06;42.33;;;25.50;;
38805;SDS011;25635;51.146;17.162;2022-11-11T00:34:51;46.20;;;26.50;;
38805;SDS011;25635;51.146;17.162;2022-11-11T00:37:39;39.17;;;23.17;;
38805;SDS011;25635;51.146;17.162;2022-11-11T00:40:08;42.50;;;24.50;;
38805;SDS011;25635;51.146;17.162;2022-11-11T00:42:36;40.07;;;24.13;;
38805;SDS011;25635;51.146;17.162;2022-11-11T00:45:02;40.90;;;24.17;;
38805;SDS011;25635;51.146;17.162;2022-11-11T00:47:30;40.87;;;24.17;;
38805;SDS011;25635;51.146;17.162;2022-11-11T00:50:18;39.03;;;23.43;;
38805;SDS011;25635;51.146;17.162;2022-11-11T00:53:13;42.57;;;24.20;;
38805;SDS011;25635;51.146;17.162;2022-11-11T00:55:45;40.17;;;24.37;;
38805;SDS011;25635;51.146;17.162;2022-11-11T00:58:12;39.23;;;24.30;;
38805;SDS011;25635;51.146;17.162;2022-11-11T01:00:38;40.77;;;24.43;;
38805;SDS011;25635;51.146;17.162;2022-11-11T01:03:04;40.97;;;24.60;;
38805;SDS011;25635;51.146;17.162;2022-11-11T01:05:30;36.17;;;22.33;;
38805;SDS011;25635;51.146;17.162;2022-11-11T01:07:56;35.53;;;20.83;;
38805;SDS011;25635;51.146;17.162;2022-11-11T01:10:22;34.17;;;21.60;;
38805;SDS011;25635;51.146;17.162;2022-11-11T01:13:14;34.57;;;20.57;;
38805;SDS011;25635;51.146;17.162;2022-11-11T01:15:44;31.63;;;19.23;;
38805;SDS011;25635;51.146;17.162;2022-11-11T01:18:14;28.93;;;16.53;;
38805;SDS011;25635;51.146;17.162;2022-11-11T01:20:43;27.17;;;15.57;;
38805;SDS011;25635;51.146;17.162;2022-11-11T01:23:10;28.90;;;16.53;;
38805;SDS011;25635;51.146;17.162;2022-11-11T01:25:39;24.67;;;15.40;;
38805;SDS011;25635;51.146;17.162;2022-11-11T01:28:07;27.40;;;16.33;;
38805;SDS011;25635;51.146;17.162;2022-11-11T01:30:34;25.93;;;16.53;;
38805;SDS011;25635;51.146;17.162;2022-11-11T01:33:01;27.00;;;16.23;;
38805;SDS011;25635;51.146;17.162;2022-11-11T01:35:28;28.20;;;16.63;;
38805;SDS011;25635;51.146;17.162;2022-11-11T01:37:55;26.93;;;16.23;;
38805;SDS011;25635;51.146;17.162;2022-11-11T01:40:23;25.07;;;15.67;;
38805;SDS011;25635;51.146;17.162;2022-11-11T01:42:50;30.10;;;17.47;;
38805;SDS011;25635;51.146;17.162;2022-11-11T01:48:28;28.13;;;16.13;;
38805;SDS011;25635;51.146;17.162;2022-11-11T01:53:58;32.80;;;18.00;;
38805;SDS011;25635;51.146;17.162;2022-11-11T01:56:27;28.33;;;16.87;;
38805;SDS011;25635;51.146;17.162;2022-11-11T01:58:54;27.37;;;16.00;;
38805;SDS011;25635;51.146;17.162;2022-11-11T02:01:25;28.27;;;15.97;;
38805;SDS011;25635;51.146;17.162;2022-11-11T02:03:52;26.73;;;15.00;;
38805;SDS011;25635;51.146;17.162;2022-11-11T02:06:38;24.90;;;12.93;;
38805;SDS011;25635;51.146;17.162;2022-11-11T02:09:05;21.57;;;13.23;;
38805;SDS011;25635;51.146;17.162;2022-11-11T02:11:33;22.10;;;12.73;;
38805;SDS011;25635;51.146;17.162;2022-11-11T02:14:19;21.95;;;13.05;;
38805;SDS011;25635;51.146;17.162;2022-11-11T02:17:01;20.77;;;12.50;;
38805;SDS011;25635;51.146;17.162;2022-11-11T02:19:42;22.23;;;13.67;;
38805;SDS011;25635;51.146;17.162;2022-11-11T02:25:12;24.70;;;15.13;;
38805;SDS011;25635;51.146;17.162;2022-11-11T02:27:42;21.97;;;13.60;;
38805;SDS011;25635;51.146;17.162;2022-11-11T02:30:15;21.50;;;12.87;;
38805;SDS011;25635;51.146;17.162;2022-11-11T02:32:44;21.03;;;12.83;;
38805;SDS011;25635;51.146;17.162;2022-11-11T02:35:14;21.17;;;12.97;;
38805;SDS011;25635;51.146;17.162;2022-11-11T02:37:48;19.07;;;12.50;;
38805;SDS011;25635;51.146;17.162;2022-11-11T02:40:37;18.50;;;12.23;;
38805;SDS011;25635;51.146;17.162;2022-11-11T02:43:11;18.77;;;11.90;;
38805;SDS011;25635;51.146;17.162;2022-11-11T02:45:37;20.70;;;12.50;;
38805;SDS011;25635;51.146;17.162;2022-11-11T02:48:03;19.53;;;12.33;;
38805;SDS011;25635;51.146;17.162;2022-11-11T02:50:30;20.10;;;13.03;;
38805;SDS011;25635;51.146;17.162;2022-11-11T02:52:56;18.37;;;11.60;;
38805;SDS011;25635;51.146;17.162;2022-11-11T02:55:22;20.37;;;12.27;;
38805;SDS011;25635;51.146;17.162;2022-11-11T02:57:48;19.07;;;12.03;;
38805;SDS011;25635;51.146;17.162;2022-11-11T03:00:15;20.03;;;12.67;;
38805;SDS011;25635;51.146;17.162;2022-11-11T03:02:42;21.37;;;12.57;;
38805;SDS011;25635;51.146;17.162;2022-11-11T03:05:08;16.27;;;10.10;;
38805;SDS011;25635;51.146;17.162;2022-11-11T03:07:34;15.60;;;10.03;;
38805;SDS011;25635;51.146;17.162;2022-11-11T03:10:00;17.33;;;10.67;;
38805;SDS011;25635;51.146;17.162;2022-11-11T03:12:27;23.13;;;11.30;;
38805;SDS011;25635;51.146;17.162;2022-11-11T03:14:53;16.63;;;10.23;;
38805;SDS011;25635;51.146;17.162;2022-11-11T03:17:19;16.33;;;10.33;;
38805;SDS011;25635;51.146;17.162;2022-11-11T03:20:08;17.87;;;10.57;;
38805;SDS011;25635;51.146;17.162;2022-11-11T03:23:09;16.83;;;10.70;;
38805;SDS011;25635;51.146;17.162;2022-11-11T03:25:39;17.20;;;10.97;;
38805;SDS011;25635;51.146;17.162;2022-11-11T03:28:12;17.17;;;10.33;;
38805;SDS011;25635;51.146;17.162;2022-11-11T03:30:45;17.87;;;10.53;;
38805;SDS011;25635;51.146;17.162;2022-11-11T03:33:13;18.60;;;10.70;;
38805;SDS011;25635;51.146;17.162;2022-11-11T03:35:42;16.73;;;9.93;;
38805;SDS011;25635;51.146;17.162;2022-11-11T03:38:09;18.07;;;11.27;;
38805;SDS011;25635;51.146;17.162;2022-11-11T03:40:54;19.30;;;11.63;;
38805;SDS011;25635;51.146;17.162;2022-11-11T03:43:21;21.57;;;11.47;;
38805;SDS011;25635;51.146;17.162;2022-11-11T03:45:55;16.03;;;10.37;;
38805;SDS011;25635;51.146;17.162;2022-11-11T03:48:24;17.13;;;11.10;;
38805;SDS011;25635;51.146;17.162;2022-11-11T03:50:52;18.57;;;12.27;;
38805;SDS011;25635;51.146;17.162;2022-11-11T03:53:19;18.53;;;11.43;;
38805;SDS011;25635;51.146;17.162;2022-11-11T03:55:48;18.23;;;11.90;;
38805;SDS011;25635;51.146;17.162;2022-11-11T03:58:15;18.40;;;12.03;;
38805;SDS011;25635;51.146;17.162;2022-11-11T04:00:43;16.80;;;11.53;;
38805;SDS011;25635;51.146;17.162;2022-11-11T04:05:58;19.43;;;12.20;;
38805;SDS011;25635;51.146;17.162;2022-11-11T04:08:44;17.50;;;11.12;;
38805;SDS011;25635;51.146;17.162;2022-11-11T04:11:36;19.33;;;11.70;;
38805;SDS011;25635;51.146;17.162;2022-11-11T04:14:09;19.83;;;12.50;;
38805;SDS011;25635;51.146;17.162;2022-11-11T04:16:56;18.90;;;12.30;;
38805;SDS011;25635;51.146;17.162;2022-11-11T04:19:22;17.13;;;11.33;;
38805;SDS011;25635;51.146;17.162;2022-11-11T04:22:07;18.67;;;11.70;;
38805;SDS011;25635;51.146;17.162;2022-11-11T04:24:34;17.83;;;10.67;;
38805;SDS011;25635;51.146;17.162;2022-11-11T04:27:19;15.63;;;9.90;;
38805;SDS011;25635;51.146;17.162;2022-11-11T04:29:46;15.90;;;10.27;;
38805;SDS011;25635;51.146;17.162;2022-11-11T04:32:13;14.10;;;10.17;;
38805;SDS011;25635;51.146;17.162;2022-11-11T04:35:07;18.67;;;11.77;;
38805;SDS011;25635;51.146;17.162;2022-11-11T04:37:45;17.55;;;11.20;;
38805;SDS011;25635;51.146;17.162;2022-11-11T04:40:16;17.03;;;11.23;;
38805;SDS011;25635;51.146;17.162;2022-11-11T04:43:01;17.50;;;11.90;;
38805;SDS011;25635;51.146;17.162;2022-11-11T04:45:28;19.73;;;12.23;;
38805;SDS011;25635;51.146;17.162;2022-11-11T04:50:34;19.00;;;12.63;;
38805;SDS011;25635;51.146;17.162;2022-11-11T04:53:04;17.90;;;11.87;;
38805;SDS011;25635;51.146;17.162;2022-11-11T04:55:35;18.20;;;11.30;;
38805;SDS011;25635;51.146;17.162;2022-11-11T04:58:22;20.05;;;11.60;;
38805;SDS011;25635;51.146;17.162;2022-11-11T05:00:52;17.03;;;10.83;;
38805;SDS011;25635;51.146;17.162;2022-11-11T05:03:18;18.00;;;11.00;;
38805;SDS011;25635;51.146;17.162;2022-11-11T05:05:48;17.27;;;12.10;;
38805;SDS011;25635;51.146;17.162;2022-11-11T05:08:45;17.67;;;10.83;;
38805;SDS011;25635;51.146;17.162;2022-11-11T05:11:22;19.27;;;11.83;;
38805;SDS011;25635;51.146;17.162;2022-11-11T05:13:55;21.20;;;12.33;;
38805;SDS011;25635;51.146;17.162;2022-11-11T05:16:47;18.37;;;11.53;;
38805;SDS011;25635;51.146;17.162;2022-11-11T05:19:40;17.83;;;11.37;;
38805;SDS011;25635;51.146;17.162;2022-11-11T05:22:27;16.30;;;10.70;;
38805;SDS011;25635;51.146;17.162;2022-11-11T05:25:04;18.70;;;11.37;;
38805;SDS011;25635;51.146;17.162;2022-11-11T05:27:50;17.07;;;11.25;;
38805;SDS011;25635;51.146;17.162;2022-11-11T05:30:21;19.33;;;11.70;;
38805;SDS011;25635;51.146;17.162;2022-11-11T05:32:49;16.10;;;11.07;;
38805;SDS011;25635;51.146;17.162;2022-11-11T05:35:16;16.47;;;10.20;;
38805;SDS011;25635;51.146;17.162;2022-11-11T05:37:43;16.33;;;10.63;;
38805;SDS011;25635;51.146;17.162;2022-11-11T05:40:11;19.33;;;11.30;;
38805;SDS011;25635;51.146;17.162;2022-11-11T05:42:41;16.73;;;10.60;;
38805;SDS011;25635;51.146;17.162;2022-11-11T05:45:07;20.10;;;12.00;;
38805;SDS011;25635;51.146;17.162;2022-11-11T05:47:34;19.03;;;11.83;;
38805;SDS011;25635;51.146;17.162;2022-11-11T05:50:01;17.53;;;10.60;;
38805;SDS011;25635;51.146;17.162;2022-11-11T05:52:27;22.33;;;12.30;;
38805;SDS011;25635;51.146;17.162;2022-11-11T05:54:53;17.93;;;10.17;;
38805;SDS011;25635;51.146;17.162;2022-11-11T05:57:19;16.90;;;9.73;;
38805;SDS011;25635;51.146;17.162;2022-11-11T05:59:45;14.43;;;9.37;;
38805;SDS011;25635;51.146;17.162;2022-11-11T06:02:12;16.30;;;10.53;;
38805;SDS011;25635;51.146;17.162;2022-11-11T06:04:39;17.43;;;10.00;;
38805;SDS011;25635;51.146;17.162;2022-11-11T06:07:05;16.77;;;9.43;;
38805;SDS011;25635;51.146;17.162;2022-11-11T06:09:31;14.90;;;9.60;;
38805;SDS011;25635;51.146;17.162;2022-11-11T06:11:57;14.20;;;9.50;;
38805;SDS011;25635;51.146;17.162;2022-11-11T06:14:23;16.53;;;10.10;;
38805;SDS011;25635;51.146;17.162;2022-11-11T06:16:49;19.33;;;11.67;;
38805;SDS011;25635;51.146;17.162;2022-11-11T06:19:15;17.17;;;10.03;;
38805;SDS011;25635;51.146;17.162;2022-11-11T06:21:42;17.37;;;10.07;;
38805;SDS011;25635;51.146;17.162;2022-11-11T06:24:23;19.80;;;10.80;;
38805;SDS011;25635;51.146;17.162;2022-11-11T06:26:50;19.37;;;10.93;;
38805;SDS011;25635;51.146;17.162;2022-11-11T06:29:16;19.20;;;10.37;;
38805;SDS011;25635;51.146;17.162;2022-11-11T06:31:42;16.37;;;10.27;;
38805;SDS011;25635;51.146;17.162;2022-11-11T06:34:10;17.03;;;10.90;;
38805;SDS011;25635;51.146;17.162;2022-11-11T06:36:36;16.37;;;10.10;;
38805;SDS011;25635;51.146;17.162;2022-11-11T06:39:02;18.40;;;10.67;;
38805;SDS011;25635;51.146;17.162;2022-11-11T06:41:29;18.37;;;10.80;;
38805;SDS011;25635;51.146;17.162;2022-11-11T06:43:55;18.37;;;10.47;;
38805;SDS011;25635;51.146;17.162;2022-11-11T06:46:22;17.93;;;11.57;;
38805;SDS011;25635;51.146;17.162;2022-11-11T06:48:50;19.43;;;11.27;;
38805;SDS011;25635;51.146;17.162;2022-11-11T06:51:16;20.07;;;11.40;;
38805;SDS011;25635;51.146;17.162;2022-11-11T06:53:43;18.13;;;11.40;;
38805;SDS011;25635;51.146;17.162;2022-11-11T06:56:10;17.67;;;10.27;;
38805;SDS011;25635;51.146;17.162;2022-11-11T06:58:37;16.50;;;10.57;;
38805;SDS011;25635;51.146;17.162;2022-11-11T07:01:04;17.80;;;11.27;;
38805;SDS011;25635;51.146;17.162;2022-11-11T07:03:32;15.90;;;10.90;;
38805;SDS011;25635;51.146;17.162;2022-11-11T07:06:00;20.77;;;12.20;;
38805;SDS011;25635;51.146;17.162;2022-11-11T07:08:28;21.30;;;13.27;;
38805;SDS011;25635;51.146;17.162;2022-11-11T07:10:55;20.80;;;13.97;;
38805;SDS011;25635;51.146;17.162;2022-11-11T07:13:21;21.57;;;13.83;;
38805;SDS011;25635;51.146;17.162;2022-11-11T07:15:47;22.23;;;13.60;;
38805;SDS011;25635;51.146;17.162;2022-11-11T07:18:14;20.67;;;13.33;;
38805;SDS011;25635;51.146;17.162;2022-11-11T07:20:40;22.20;;;13.07;;
38805;SDS011;25635;51.146;17.162;2022-11-11T07:23:07;19.57;;;12.60;;
38805;SDS011;25635;51.146;17.162;2022-11-11T07:25:33;22.73;;;13.40;;
38805;SDS011;25635;51.146;17.162;2022-11-11T07:27:59;18.97;;;13.00;;
38805;SDS011;25635;51.146;17.162;2022-11-11T07:30:26;19.63;;;13.67;;
38805;SDS011;25635;51.146;17.162;2022-11-11T07:32:52;22.63;;;13.93;;
38805;SDS011;25635;51.146;17.162;2022-11-11T07:35:19;21.63;;;13.30;;
38805;SDS011;25635;51.146;17.162;2022-11-11T07:37:46;19.47;;;12.60;;
38805;SDS011;25635;51.146;17.162;2022-11-11T07:40:13;19.37;;;12.27;;
38805;SDS011;25635;51.146;17.162;2022-11-11T07:42:42;18.97;;;11.93;;
38805;SDS011;25635;51.146;17.162;2022-11-11T07:45:10;18.90;;;11.63;;
38805;SDS011;25635;51.146;17.162;2022-11-11T07:47:38;17.93;;;11.63;;
38805;SDS011;25635;51.146;17.162;2022-11-11T07:50:04;19.87;;;11.53;;
38805;SDS011;25635;51.146;17.162;2022-11-11T07:52:32;20.97;;;11.97;;
38805;SDS011;25635;51.146;17.162;2022-11-11T07:54:59;18.30;;;12.43;;
38805;SDS011;25635;51.146;17.162;2022-11-11T07:57:25;22.27;;;12.50;;
38805;SDS011;25635;51.146;17.162;2022-11-11T07:59:51;19.70;;;12.20;;
38805;SDS011;25635;51.146;17.162;2022-11-11T08:02:17;20.70;;;12.30;;
38805;SDS011;25635;51.146;17.162;2022-11-11T08:04:43;19.63;;;11.57;;
38805;SDS011;25635;51.146;17.162;2022-11-11T08:07:10;19.83;;;11.57;;
38805;SDS011;25635;51.146;17.162;2022-11-11T08:09:37;16.63;;;10.73;;
38805;SDS011;25635;51.146;17.162;2022-11-11T08:12:03;17.30;;;11.70;;
38805;SDS011;25635;51.146;17.162;2022-11-11T08:14:48;17.30;;;11.13;;
38805;SDS011;25635;51.146;17.162;2022-11-11T08:17:14;16.77;;;10.80;;
38805;SDS011;25635;51.146;17.162;2022-11-11T08:19:40;20.03;;;9.80;;
38805;SDS011;25635;51.146;17.162;2022-11-11T08:22:06;16.20;;;9.50;;
38805;SDS011;25635;51.146;17.162;2022-11-11T08:24:32;17.30;;;9.70;;
38805;SDS011;25635;51.146;17.162;2022-11-11T08:26:58;17.10;;;9.67;;
38805;SDS011;25635;51.146;17.162;2022-11-11T08:29:24;16.23;;;9.23;;
38805;SDS011;25635;51.146;17.162;2022-11-11T08:31:51;17.23;;;9.63;;
38805;SDS011;25635;51.146;17.162;2022-11-11T08:34:18;16.47;;;9.03;;
38805;SDS011;25635;51.146;17.162;2022-11-11T08:36:44;15.50;;;8.68;;
38805;SDS011;25635;51.146;17.162;2022-11-11T08:39:10;13.60;;;8.37;;
38805;SDS011;25635;51.146;17.162;2022-11-11T08:41:36;15.60;;;8.57;;
38805;SDS011;25635;51.146;17.162;2022-11-11T08:44:03;17.75;;;9.13;;
38805;SDS011;25635;51.146;17.162;2022-11-11T08:46:29;15.32;;;8.73;;
38805;SDS011;25635;51.146;17.162;2022-11-11T08:48:56;14.93;;;9.00;;
38805;SDS011;25635;51.146;17.162;2022-11-11T08:51:22;16.95;;;9.20;;
38805;SDS011;25635;51.146;17.162;2022-11-11T08:53:48;14.38;;;8.48;;
38805;SDS011;25635;51.146;17.162;2022-11-11T08:56:14;15.03;;;8.03;;
38805;SDS011;25635;51.146;17.162;2022-11-11T08:58:41;13.30;;;8.57;;
38805;SDS011;25635;51.146;17.162;2022-11-11T09:01:10;16.12;;;9.45;;
38805;SDS011;25635;51.146;17.162;2022-11-11T09:03:38;14.43;;;9.33;;
38805;SDS011;25635;51.146;17.162;2022-11-11T09:06:08;17.32;;;9.08;;
38805;SDS011;25635;51.146;17.162;2022-11-11T09:08:36;13.70;;;8.03;;
38805;SDS011;25635;51.146;17.162;2022-11-11T09:11:02;13.55;;;7.95;;
38805;SDS011;25635;51.146;17.162;2022-11-11T09:13:29;14.87;;;7.70;;
38805;SDS011;25635;51.146;17.162;2022-11-11T09:15:55;13.58;;;7.72;;
38805;SDS011;25635;51.146;17.162;2022-11-11T09:18:22;14.15;;;8.05;;
38805;SDS011;25635;51.146;17.162;2022-11-11T09:20:48;19.80;;;9.18;;
38805;SDS011;25635;51.146;17.162;2022-11-11T09:23:14;19.12;;;9.05;;
38805;SDS011;25635;51.146;17.162;2022-11-11T09:25:41;17.27;;;9.15;;
38805;SDS011;25635;51.146;17.162;2022-11-11T09:28:07;17.85;;;9.13;;
38805;SDS011;25635;51.146;17.162;2022-11-11T09:30:33;17.00;;;8.63;;
38805;SDS011;25635;51.146;17.162;2022-11-11T09:33:00;17.02;;;8.48;;
38805;SDS011;25635;51.146;17.162;2022-11-11T09:35:29;15.98;;;8.28;;
38805;SDS011;25635;51.146;17.162;2022-11-11T09:37:57;14.93;;;8.38;;
38805;SDS011;25635;51.146;17.162;2022-11-11T09:40:26;16.45;;;7.75;;
38805;SDS011;25635;51.146;17.162;2022-11-11T09:43:46;14.93;;;7.87;;
38805;SDS011;25635;51.146;17.162;2022-11-11T09:46:20;15.28;;;7.95;;
38805;SDS011;25635;51.146;17.162;2022-11-11T09:51:19;12.73;;;7.87;;
38805;SDS011;25635;51.146;17.162;2022-11-11T09:54:04;14.73;;;7.87;;
38805;SDS011;25635;51.146;17.162;2022-11-11T09:56:32;12.90;;;7.00;;
38805;SDS011;25635;51.146;17.162;2022-11-11T09:59:23;15.83;;;7.33;;
38805;SDS011;25635;51.146;17.162;2022-11-11T10:01:39;18.37;;;8.70;;
38805;SDS011;25635;51.146;17.162;2022-11-11T10:07:45;17.45;;;8.75;;
38805;SDS011;25635;51.146;17.162;2022-11-11T10:09:40;16.73;;;8.38;;
38805;SDS011;25635;51.146;17.162;2022-11-11T10:12:12;16.32;;;8.00;;
38805;SDS011;25635;51.146;17.162;2022-11-11T10:14:43;18.57;;;7.87;;
38805;SDS011;25635;51.146;17.162;2022-11-11T10:23:02;13.65;;;7.97;;
38805;SDS011;25635;51.146;17.162;2022-11-11T10:25:39;13.38;;;6.85;;
38805;SDS011;25635;51.146;17.162;2022-11-11T10:28:14;12.20;;;6.15;;
38805;SDS011;25635;51.146;17.162;2022-11-11T10:30:43;14.33;;;5.87;;
38805;SDS011;25635;51.146;17.162;2022-11-11T10:33:16;9.73;;;5.22;;
38805;SDS011;25635;51.146;17.162;2022-11-11T10:35:59;9.83;;;5.25;;
38805;SDS011;25635;51.146;17.162;2022-11-11T10:41:30;11.38;;;5.35;;
38805;SDS011;25635;51.146;17.162;2022-11-11T10:44:25;10.58;;;4.67;;
38805;SDS011;25635;51.146;17.162;2022-11-11T10:53:07;11.10;;;4.53;;
38805;SDS011;25635;51.146;17.162;2022-11-11T10:55:39;9.10;;;4.37;;
38805;SDS011;25635;51.146;17.162;2022-11-11T11:01:09;9.28;;;4.87;;
38805;SDS011;25635;51.146;17.162;2022-11-11T11:03:39;9.10;;;4.58;;
38805;SDS011;25635;51.146;17.162;2022-11-11T11:06:17;9.13;;;4.58;;
38805;SDS011;25635;51.146;17.162;2022-11-11T11:08:51;10.58;;;5.17;;
38805;SDS011;25635;51.146;17.162;2022-11-11T11:11:43;9.58;;;4.60;;
38805;SDS011;25635;51.146;17.162;2022-11-11T11:14:35;9.70;;;3.98;;
38805;SDS011;25635;51.146;17.162;2022-11-11T11:17:06;8.95;;;4.28;;
38805;SDS011;25635;51.146;17.162;2022-11-11T11:19:40;9.93;;;4.67;;
38805;SDS011;25635;51.146;17.162;2022-11-11T11:22:06;11.30;;;4.62;;
38805;SDS011;25635;51.146;17.162;2022-11-11T11:24:33;9.58;;;4.30;;
38805;SDS011;25635;51.146;17.162;2022-11-11T11:27:03;9.30;;;4.00;;
38805;SDS011;25635;51.146;17.162;2022-11-11T11:32:15;8.48;;;4.08;;
38805;SDS011;25635;51.146;17.162;2022-11-11T11:34:47;7.22;;;3.85;;
38805;SDS011;25635;51.146;17.162;2022-11-11T11:37:19;8.98;;;3.80;;
38805;SDS011;25635;51.146;17.162;2022-11-11T11:39:48;10.72;;;4.80;;
38805;SDS011;25635;51.146;17.162;2022-11-11T11:42:34;9.78;;;4.42;;
38805;SDS011;25635;51.146;17.162;2022-11-11T11:45:19;7.92;;;3.83;;
38805;SDS011;25635;51.146;17.162;2022-11-11T11:47:59;10.78;;;4.00;;
38805;SDS011;25635;51.146;17.162;2022-11-11T11:50:52;11.43;;;4.37;;
38805;SDS011;25635;51.146;17.162;2022-11-11T11:53:37;7.95;;;4.37;;
38805;SDS011;25635;51.146;17.162;2022-11-11T12:07:44;9.73;;;4.35;;
38805;SDS011;25635;51.146;17.162;2022-11-11T12:16:34;9.70;;;5.35;;
38805;SDS011;25635;51.146;17.162;2022-11-11T12:19:21;8.95;;;4.62;;
38805;SDS011;25635;51.146;17.162;2022-11-11T12:30:43;10.72;;;4.72;;
38805;SDS011;25635;51.146;17.162;2022-11-11T12:33:30;9.95;;;4.33;;
38805;SDS011;25635;51.146;17.162;2022-11-11T12:39:05;10.23;;;4.25;;
38805;SDS011;25635;51.146;17.162;2022-11-11T12:44:18;9.33;;;4.03;;
38805;SDS011;25635;51.146;17.162;2022-11-11T12:46:54;9.43;;;4.17;;
38805;SDS011;25635;51.146;17.162;2022-11-11T12:49:30;8.07;;;3.63;;
38805;SDS011;25635;51.146;17.162;2022-11-11T12:54:54;7.67;;;3.90;;
38805;SDS011;25635;51.146;17.162;2022-11-11T13:00:29;8.78;;;4.10;;
38805;SDS011;25635;51.146;17.162;2022-11-11T13:17:10;26.80;;;5.12;;
38805;SDS011;25635;51.146;17.162;2022-11-11T13:19:43;12.45;;;6.22;;
38805;SDS011;25635;51.146;17.162;2022-11-11T13:22:33;9.98;;;4.62;;
38805;SDS011;25635;51.146;17.162;2022-11-11T13:25:01;32.93;;;16.45;;
38805;SDS011;25635;51.146;17.162;2022-11-11T13:33:07;8.18;;;3.47;;
38805;SDS011;25635;51.146;17.162;2022-11-11T13:35:44;21.82;;;12.90;;
38805;SDS011;25635;51.146;17.162;2022-11-11T13:38:30;13.48;;;5.62;;
38805;SDS011;25635;51.146;17.162;2022-11-11T13:41:04;81.85;;;44.40;;
38805;SDS011;25635;51.146;17.162;2022-11-11T13:43:34;56.45;;;30.52;;
38805;SDS011;25635;51.146;17.162;2022-11-11T13:46:10;44.42;;;23.45;;
38805;SDS011;25635;51.146;17.162;2022-11-11T13:49:08;30.50;;;15.58;;
38805;SDS011;25635;51.146;17.162;2022-11-11T13:52:03;33.02;;;15.40;;
38805;SDS011;25635;51.146;17.162;2022-11-11T13:54:40;54.05;;;27.70;;
38805;SDS011;25635;51.146;17.162;2022-11-11T13:57:07;38.92;;;19.37;;
38805;SDS011;25635;51.146;17.162;2022-11-11T13:59:41;94.67;;;48.85;;
38805;SDS011;25635;51.146;17.162;2022-11-11T14:05:33;19.05;;;9.28;;
38805;SDS011;25635;51.146;17.162;2022-11-11T14:12:49;42.83;;;22.07;;
38805;SDS011;25635;51.146;17.162;2022-11-11T14:20:51;26.52;;;12.70;;
38805;SDS011;25635;51.146;17.162;2022-11-11T14:23:23;15.55;;;7.20;;
38805;SDS011;25635;51.146;17.162;2022-11-11T14:28:43;9.35;;;5.55;;
38805;SDS011;25635;51.146;17.162;2022-11-11T14:31:27;11.25;;;6.15;;
38805;SDS011;25635;51.146;17.162;2022-11-11T14:34:16;12.70;;;6.80;;
38805;SDS011;25635;51.146;17.162;2022-11-11T14:36:55;15.43;;;6.33;;
38805;SDS011;25635;51.146;17.162;2022-11-11T14:45:03;16.35;;;8.60;;
38805;SDS011;25635;51.146;17.162;2022-11-11T14:47:50;14.58;;;7.62;;
38805;SDS011;25635;51.146;17.162;2022-11-11T14:53:08;12.30;;;7.08;;
38805;SDS011;25635;51.146;17.162;2022-11-11T14:55:49;12.63;;;7.25;;
38805;SDS011;25635;51.146;17.162;2022-11-11T15:00:50;11.65;;;6.03;;
38805;SDS011;25635;51.146;17.162;2022-11-11T15:06:22;12.18;;;6.08;;
38805;SDS011;25635;51.146;17.162;2022-11-11T15:09:01;12.33;;;7.35;;
38805;SDS011;25635;51.146;17.162;2022-11-11T15:15:09;13.70;;;8.03;;
38805;SDS011;25635;51.146;17.162;2022-11-11T15:17:59;13.48;;;8.25;;
38805;SDS011;25635;51.146;17.162;2022-11-11T15:20:50;14.68;;;8.73;;
38805;SDS011;25635;51.146;17.162;2022-11-11T15:26:32;43.90;;;21.87;;
38805;SDS011;25635;51.146;17.162;2022-11-11T15:29:32;33.73;;;16.15;;
38805;SDS011;25635;51.146;17.162;2022-11-11T15:32:24;24.02;;;12.65;;
38805;SDS011;25635;51.146;17.162;2022-11-11T15:38:03;19.60;;;11.10;;
38805;SDS011;25635;51.146;17.162;2022-11-11T15:40:32;20.50;;;11.63;;
38805;SDS011;25635;51.146;17.162;2022-11-11T15:43:17;18.97;;;10.23;;
38805;SDS011;25635;51.146;17.162;2022-11-11T15:45:54;16.93;;;10.63;;
38805;SDS011;25635;51.146;17.162;2022-11-11T15:48:34;17.52;;;8.88;;
38805;SDS011;25635;51.146;17.162;2022-11-11T15:51:24;24.92;;;13.45;;
38805;SDS011;25635;51.146;17.162;2022-11-11T15:54:07;25.37;;;15.68;;
38805;SDS011;25635;51.146;17.162;2022-11-11T15:56:43;19.20;;;10.48;;
38805;SDS011;25635;51.146;17.162;2022-11-11T15:59:22;14.25;;;8.40;;
38805;SDS011;25635;51.146;17.162;2022-11-11T16:01:52;15.88;;;8.70;;
38805;SDS011;25635;51.146;17.162;2022-11-11T16:04:21;18.30;;;10.28;;
38805;SDS011;25635;51.146;17.162;2022-11-11T16:06:49;20.45;;;11.18;;
38805;SDS011;25635;51.146;17.162;2022-11-11T16:09:18;24.18;;;11.43;;
38805;SDS011;25635;51.146;17.162;2022-11-11T16:11:49;32.55;;;15.50;;
38805;SDS011;25635;51.146;17.162;2022-11-11T16:14:21;39.00;;;18.55;;
38805;SDS011;25635;51.146;17.162;2022-11-11T16:16:52;33.60;;;15.98;;
38805;SDS011;25635;51.146;17.162;2022-11-11T16:22:08;28.30;;;15.53;;
38805;SDS011;25635;51.146;17.162;2022-11-11T16:24:43;22.17;;;12.05;;
38805;SDS011;25635;51.146;17.162;2022-11-11T16:27:21;21.15;;;11.22;;
38805;SDS011;25635;51.146;17.162;2022-11-11T16:29:54;18.90;;;11.25;;
38805;SDS011;25635;51.146;17.162;2022-11-11T16:34:56;20.20;;;10.95;;
38805;SDS011;25635;51.146;17.162;2022-11-11T16:37:22;21.80;;;11.40;;
38805;SDS011;25635;51.146;17.162;2022-11-11T16:39:49;21.25;;;12.07;;
38805;SDS011;25635;51.146;17.162;2022-11-11T16:42:16;20.48;;;11.65;;
38805;SDS011;25635;51.146;17.162;2022-11-11T16:44:57;18.73;;;10.95;;
38805;SDS011;25635;51.146;17.162;2022-11-11T16:58:02;22.55;;;12.65;;
38805;SDS011;25635;51.146;17.162;2022-11-11T17:00:39;19.75;;;11.93;;
38805;SDS011;25635;51.146;17.162;2022-11-11T17:03:15;20.43;;;11.57;;
38805;SDS011;25635;51.146;17.162;2022-11-11T17:08:35;15.03;;;9.45;;
38805;SDS011;25635;51.146;17.162;2022-11-11T17:11:07;18.65;;;10.88;;
38805;SDS011;25635;51.146;17.162;2022-11-11T17:13:36;20.32;;;12.28;;
38805;SDS011;25635;51.146;17.162;2022-11-11T17:16:03;22.70;;;13.45;;
38805;SDS011;25635;51.146;17.162;2022-11-11T17:18:35;20.52;;;12.07;;
38805;SDS011;25635;51.146;17.162;2022-11-11T17:21:03;21.20;;;12.65;;